Bemidji Regional Airport
KBJI : now visible

Airfield :











YOU CAN JOIN US ON...

 
LOGIN :

Register | Disclaimer

   EN    FR    IT 

 









Legend :    VFR   Marginal VFR   IFR   Intensive IFR   Very Intensive IFR
Visi :
Ceiling :
>= 8 km
>= 3000ft
5 to 8 km
1000 to 3000 ft
1500m to 5 km
500 to 1000 ft
800 to 1500m
200 to 500 ft
< 800m
< 200 ft
Symbols :   Thunderstorms  Fog  Heavy snow  Heavy precipitations  Wind > 20 kt






- Airport Elevation : 1391 ft


KBJI - Bemidji Regional

CURRENT METAR :
  • 181215Z AUTO 29003KT 3/4SM SN BKN017 OVC022 M10/M11 A2975 RMK AO2 T10971107

EXPIRED METARs :
  • 181155Z AUTO 00000KT 3/4SM SN OVC015 M09/M10 A2975 RMK AO2 P0002 60007 70007 T10931102 11086 21094
  • 181135Z AUTO 00000KT 3/4SM SN OVC013 M09/M10 A2975 RMK AO2 P0001 T10921101
  • 181116Z AUTO 00000KT 1SM SN OVC015 M09/M10 A2976 RMK AO2 T10921101
  • 181056Z AUTO 00000KT 1SM SN OVC013 M09/M10 A2976 RMK AO2 P0001 T10931102
  • 181035Z AUTO 00000KT 3/4SM SN OVC012 M09/M10 A2976 RMK AO2 T10931102
  • 181015Z AUTO 00000KT 3SM -SN SCT018 BKN024 M09/M10 A2977 RMK AO2 T10921101
  • 180956Z AUTO 00000KT 2 1/2SM -SN BKN018 OVC024 M09/M10 A2978 RMK AO2 T10911100
  • 180935Z AUTO 00000KT 1 3/4SM -SN OVC018 M09/M10 A2979 RMK AO2 T10901098
  • 180915Z AUTO 00000KT 2SM -SN SCT007 OVC016 M09/M10 A2979 RMK AO2 T10901098

TAF KBJI
Valid from the 18 at 12:00 until the 19 at 12:00 UTC


181137Z 1812/1912 29008KT 3/4SM -SN OVC015
FM181700 29016G25KT 3/4SM -SN BLSN OVC015
FM182000 29019G29KT 3/4SM -SN BLSN OVC014
FM190100 29016G25KT P6SM BKN014



MET'MAP, your aeronautical weather chart ! - Copyright ORBIFLY December 2007 - Disclaimer

ORBIFLY MET'MAP TEAM :

Programming & Development : Alexandra Zaïnal
Concept & original design : Baudouin d'Aumeries
Assistance for programming : Marc-Olivier Méhu
Technical & hardware support : Manuel Goepfert

Contact : metmap@orbifly.com




SOURCES & CREDITS :

   NOAA       Earth
Advisory